Time,TemperatureF,DewpointF,PressureIn,WindDirection,WindDirectionDegrees,WindSpeedMPH,WindSpeedGustMPH,Humidity,HourlyPrecipIn,Conditions,Clouds,dailyrainin,SolarRadiationWatts/m^2,SoftwareType,DateUTC
2013-08-17 00:01:00,66.0,56.0,-100.00,NNE,17,7.0,10.0,70,0.00,,,0.00,0.000000,,2013-08-17 07:01:00,
2013-08-17 00:42:00,64.0,56.0,-100.00,NE,48,4.0,10.0,75,0.00,,,0.00,0.000000,,2013-08-17 07:42:00,
2013-08-17 00:52:00,64.0,56.0,-100.00,NE,48,4.0,10.0,75,0.00,,,0.00,0.000000,,2013-08-17 07:52:00,
2013-08-17 01:01:00,64.0,56.0,-100.00,NE,48,4.0,10.0,75,0.00,,,0.00,0.000000,,2013-08-17 08:01:00,
2013-08-17 01:42:00,63.0,56.0,-100.00,ENE,65,5.0,7.0,77,0.00,,,0.00,0.000000,,2013-08-17 08:42:00,
2013-08-17 01:52:00,63.0,56.0,-100.00,ENE,65,5.0,7.0,77,0.00,,,0.00,0.000000,,2013-08-17 08:52:00,
2013-08-17 02:01:00,63.0,56.0,-100.00,ENE,65,5.0,7.0,77,0.00,,,0.00,0.000000,,2013-08-17 09:01:00,
2013-08-17 02:02:00,62.0,55.0,-100.00,East,94,5.0,8.0,78,0.00,,,-99.99,0.000000,,2013-08-17 09:02:00,
2013-08-17 02:43:00,62.0,55.0,-100.00,East,94,5.0,8.0,78,0.00,,,-99.99,0.000000,,2013-08-17 09:43:00,
2013-08-17 02:53:00,62.0,55.0,-100.00,East,94,5.0,8.0,78,0.00,,,-99.99,0.000000,,2013-08-17 09:53:00,
2013-08-17 03:02:00,61.0,53.0,-100.00,East,89,3.0,7.0,76,0.00,,,-99.99,0.000000,,2013-08-17 10:02:00,
2013-08-17 03:42:00,61.0,53.0,-100.00,East,89,3.0,7.0,76,0.00,,,-99.99,0.000000,,2013-08-17 10:42:00,
2013-08-17 03:52:00,61.0,53.0,-100.00,East,89,3.0,7.0,76,0.00,,,-99.99,0.000000,,2013-08-17 10:52:00,
2013-08-17 04:42:00,60.0,54.0,-100.00,SE,138,2.0,5.0,80,0.00,,,0.00,0.000000,,2013-08-17 11:42:00,
2013-08-17 04:52:00,60.0,54.0,-100.00,SE,138,2.0,5.0,80,0.00,,,0.00,0.000000,,2013-08-17 11:52:00,
2013-08-17 05:01:00,60.0,54.0,-100.00,SE,138,2.0,5.0,80,0.00,,,0.00,0.000000,,2013-08-17 12:01:00,
2013-08-17 05:42:00,59.0,54.0,-100.00,SSW,212,3.0,5.0,82,0.00,,,0.00,0.000000,,2013-08-17 12:42:00,
2013-08-17 05:52:00,59.0,54.0,-100.00,SSW,212,3.0,5.0,82,0.00,,,0.00,0.000000,,2013-08-17 12:52:00,
2013-08-17 06:01:00,59.0,54.0,-100.00,SSW,212,3.0,5.0,82,0.00,,,0.00,0.000000,,2013-08-17 13:01:00,
2013-08-17 06:42:00,58.0,54.0,-100.00,SSW,210,4.0,5.0,88,0.00,,,0.00,1.000000,,2013-08-17 13:42:00,
2013-08-17 06:52:00,58.0,54.0,-100.00,SSW,210,4.0,5.0,88,0.00,,,0.00,1.000000,,2013-08-17 13:52:00,
2013-08-17 07:01:00,58.0,54.0,-100.00,SSW,210,4.0,5.0,88,0.00,,,0.00,1.000000,,2013-08-17 14:01:00,
2013-08-17 07:42:00,59.0,54.0,-100.00,SE,146,0.0,4.0,84,0.00,,,0.00,19.000000,,2013-08-17 14:42:00,
2013-08-17 07:52:00,59.0,54.0,-100.00,SE,146,0.0,4.0,84,0.00,,,0.00,19.000000,,2013-08-17 14:52:00,
2013-08-17 08:01:00,59.0,54.0,-100.00,SE,146,0.0,4.0,84,0.00,,,0.00,19.000000,,2013-08-17 15:01:00,
2013-08-17 08:02:00,66.0,56.0,-100.00,WSW,242,4.0,6.0,69,0.00,,,0.00,171.000000,,2013-08-17 15:02:00,
2013-08-17 08:53:00,66.0,56.0,-100.00,WSW,242,4.0,6.0,69,0.00,,,0.00,171.000000,,2013-08-17 15:53:00,
2013-08-17 09:02:00,67.0,55.0,-100.00,WSW,258,2.0,6.0,66,0.00,,,-99.99,203.000000,,2013-08-17 16:02:00,
2013-08-17 09:42:00,67.0,55.0,-100.00,WSW,258,2.0,6.0,66,0.00,,,-99.99,203.000000,,2013-08-17 16:42:00,
2013-08-17 09:53:00,67.0,55.0,-100.00,WSW,258,2.0,6.0,66,0.00,,,-99.99,203.000000,,2013-08-17 16:53:00,
2013-08-17 10:42:00,73.0,54.0,-100.00,WNW,282,4.0,7.0,52,0.00,,,0.00,487.000000,,2013-08-17 17:42:00,
2013-08-17 10:52:00,73.0,54.0,-100.00,WNW,282,4.0,7.0,52,0.00,,,0.00,487.000000,,2013-08-17 17:52:00,
2013-08-17 11:01:00,73.0,54.0,-100.00,WNW,282,4.0,7.0,52,0.00,,,0.00,487.000000,,2013-08-17 18:01:00,
2013-08-17 11:21:00,77.0,53.0,-100.00,NNE,33,4.0,8.0,43,0.00,,,0.00,661.000000,,2013-08-17 18:21:00,
2013-08-17 11:32:00,77.0,53.0,-100.00,NNE,33,4.0,8.0,43,0.00,,,0.00,661.000000,,2013-08-17 18:32:00,
2013-08-17 11:42:00,77.0,53.0,-100.00,NNE,33,4.0,8.0,43,0.00,,,0.00,661.000000,,2013-08-17 18:42:00,
2013-08-17 11:52:00,77.0,53.0,-100.00,NNE,33,4.0,8.0,43,0.00,,,0.00,661.000000,,2013-08-17 18:52:00,
2013-08-17 12:01:00,77.0,53.0,-100.00,NNE,33,4.0,8.0,43,0.00,,,0.00,661.000000,,2013-08-17 19:01:00,
2013-08-17 12:02:00,81.0,52.0,-100.00,North,7,5.0,12.0,37,0.00,,,0.00,780.000000,,2013-08-17 19:02:00,
2013-08-17 12:42:00,81.0,52.0,-100.00,North,7,5.0,12.0,37,0.00,,,0.00,780.000000,,2013-08-17 19:42:00,
2013-08-17 12:52:00,81.0,52.0,-100.00,North,7,5.0,12.0,37,0.00,,,0.00,780.000000,,2013-08-17 19:52:00,
2013-08-17 13:42:00,82.0,52.0,-100.00,NNW,335,7.0,17.0,35,0.00,,,0.00,810.000000,,2013-08-17 20:42:00,
2013-08-17 13:52:00,82.0,52.0,-100.00,NNW,335,7.0,17.0,35,0.00,,,0.00,810.000000,,2013-08-17 20:52:00,
2013-08-17 14:01:00,82.0,52.0,-100.00,NNW,335,7.0,17.0,35,0.00,,,0.00,810.000000,,2013-08-17 21:01:00,
2013-08-17 14:02:00,84.0,51.0,-100.00,NNW,329,7.0,12.0,32,0.00,,,0.00,729.000000,,2013-08-17 21:02:00,
2013-08-17 14:22:00,84.0,51.0,-100.00,NNW,329,7.0,12.0,32,0.00,,,0.00,729.000000,,2013-08-17 21:22:00,
2013-08-17 14:33:00,84.0,51.0,-100.00,NNW,329,7.0,12.0,32,0.00,,,0.00,729.000000,,2013-08-17 21:33:00,
2013-08-17 14:42:00,84.0,51.0,-100.00,NNW,329,7.0,12.0,32,0.00,,,0.00,729.000000,,2013-08-17 21:42:00,
2013-08-17 14:53:00,84.0,51.0,-100.00,NNW,329,7.0,12.0,32,0.00,,,0.00,729.000000,,2013-08-17 21:53:00,
2013-08-17 15:02:00,85.0,51.0,-100.00,NNW,345,9.0,16.0,31,0.00,,,0.00,795.000000,,2013-08-17 22:02:00,
2013-08-17 15:42:00,85.0,51.0,-100.00,NNW,345,9.0,16.0,31,0.00,,,0.00,795.000000,,2013-08-17 22:42:00,
2013-08-17 15:52:00,85.0,51.0,-100.00,NNW,345,9.0,16.0,31,0.00,,,0.00,795.000000,,2013-08-17 22:52:00,
2013-08-17 16:42:00,84.0,51.0,-100.00,NNW,348,10.0,17.0,32,0.00,,,0.00,618.000000,,2013-08-17 23:42:00,
2013-08-17 16:52:00,84.0,51.0,-100.00,NNW,348,10.0,17.0,32,0.00,,,0.00,618.000000,,2013-08-17 23:52:00,
2013-08-17 17:01:00,84.0,51.0,-100.00,NNW,348,10.0,17.0,32,0.00,,,0.00,618.000000,,2013-08-18 00:01:00,
2013-08-17 17:21:00,84.0,50.0,-100.00,NNW,341,7.0,17.0,31,0.00,,,0.00,672.000000,,2013-08-18 00:21:00,
2013-08-17 17:32:00,84.0,50.0,-100.00,NNW,341,7.0,17.0,31,0.00,,,0.00,672.000000,,2013-08-18 00:32:00,
2013-08-17 17:42:00,84.0,50.0,-100.00,NNW,341,7.0,17.0,31,0.00,,,0.00,672.000000,,2013-08-18 00:42:00,
2013-08-17 17:52:00,84.0,50.0,-100.00,NNW,341,7.0,17.0,31,0.00,,,0.00,672.000000,,2013-08-18 00:52:00,
2013-08-17 18:01:00,84.0,50.0,-100.00,NNW,341,7.0,17.0,31,0.00,,,0.00,672.000000,,2013-08-18 01:01:00,
2013-08-17 18:02:00,79.0,50.0,-100.00,North,8,10.0,18.0,36,0.00,,,0.00,263.000000,,2013-08-18 01:02:00,
2013-08-17 18:42:00,79.0,50.0,-100.00,North,8,10.0,18.0,36,0.00,,,0.00,263.000000,,2013-08-18 01:42:00,
2013-08-17 18:52:00,79.0,50.0,-100.00,North,8,10.0,18.0,36,0.00,,,0.00,263.000000,,2013-08-18 01:52:00,
2013-08-17 19:02:00,78.0,52.0,-100.00,North,355,10.0,20.0,40,0.00,,,0.00,138.000000,,2013-08-18 02:02:00,
2013-08-17 19:42:00,78.0,52.0,-100.00,North,355,10.0,20.0,40,0.00,,,0.00,138.000000,,2013-08-18 02:42:00,
2013-08-17 19:52:00,78.0,52.0,-100.00,North,355,10.0,20.0,40,0.00,,,0.00,138.000000,,2013-08-18 02:52:00,
2013-08-17 20:02:00,-999.0,-99.9,-100.00,North,350,9.0,18.0,-999,0.00,,,0.00,79.000000,,2013-08-18 03:02:00,
2013-08-17 20:43:00,71.0,50.0,-100.00,North,350,9.0,18.0,48,0.00,,,0.00,79.000000,,2013-08-18 03:43:00,
2013-08-17 20:53:00,71.0,50.0,-100.00,North,350,9.0,18.0,48,0.00,,,0.00,79.000000,,2013-08-18 03:53:00,
2013-08-17 21:02:00,68.0,51.0,-100.00,North,7,6.0,12.0,54,0.00,,,-99.99,2.000000,,2013-08-18 04:02:00,
2013-08-17 21:42:00,68.0,51.0,-100.00,North,7,6.0,12.0,54,0.00,,,-99.99,2.000000,,2013-08-18 04:42:00,
2013-08-17 21:53:00,68.0,51.0,-100.00,North,7,6.0,12.0,54,0.00,,,-99.99,2.000000,,2013-08-18 04:53:00,
2013-08-17 22:42:00,65.0,50.0,-100.00,NNE,19,7.0,11.0,59,0.00,,,0.00,1.000000,,2013-08-18 05:42:00,
2013-08-17 22:52:00,65.0,50.0,-100.00,NNE,19,7.0,11.0,59,0.00,,,0.00,1.000000,,2013-08-18 05:52:00,
2013-08-17 23:01:00,65.0,50.0,-100.00,NNE,19,7.0,11.0,59,0.00,,,0.00,1.000000,,2013-08-18 06:01:00,
2013-08-17 23:42:00,63.0,50.0,-100.00,ENE,64,5.0,9.0,63,0.00,,,0.00,0.000000,,2013-08-18 06:42:00,
2013-08-17 23:52:00,63.0,50.0,-100.00,ENE,64,5.0,9.0,63,0.00,,,0.00,0.000000,,2013-08-18 06:52:00,